createdAt,value
2018-08-03T00:00:53.052Z,100885.67
2018-08-03T00:05:58.938Z,100885.14
2018-08-03T00:11:02.872Z,100883.29
2018-08-03T00:16:06.643Z,100876.11
2018-08-03T00:21:10.667Z,100871.05
2018-08-03T00:26:14.460Z,100876.53
2018-08-03T00:31:19.786Z,100881.96
2018-08-03T00:36:23.623Z,100878.03
2018-08-03T00:41:27.420Z,100879.50
2018-08-03T00:46:31.692Z,100895.30
2018-08-03T00:51:35.600Z,100895.30
2018-08-03T00:56:39.389Z,100898.28
2018-08-03T01:01:43.153Z,100898.27
2018-08-03T01:06:47.113Z,100902.66
2018-08-03T01:11:51.351Z,100907.92
2018-08-03T01:16:55.165Z,100898.27
2018-08-03T01:21:58.947Z,100889.20
2018-08-03T01:27:02.813Z,100887.55
2018-08-03T01:32:06.735Z,100889.76
2018-08-03T01:37:10.610Z,100887.20
2018-08-03T01:42:14.390Z,100886.86
2018-08-03T01:47:18.553Z,100885.48
2018-08-03T01:52:24.668Z,100895.96
2018-08-03T01:57:33.512Z,100900.92
2018-08-03T02:02:37.458Z,100890.00
2018-08-03T02:07:41.268Z,100896.60
2018-08-03T02:12:45.402Z,100888.64
2018-08-03T02:17:49.164Z,100887.79
2018-08-03T02:22:52.918Z,100883.34
2018-08-03T02:27:56.679Z,100886.91
2018-08-03T02:33:00.559Z,100888.05
2018-08-03T02:38:04.494Z,100892.28
2018-08-03T02:59:30.979Z,100902.80
2018-08-03T03:04:34.930Z,100902.38
2018-08-03T03:09:38.802Z,100911.95
2018-08-03T03:14:42.686Z,100917.03
2018-08-03T03:19:46.508Z,100920.91
2018-08-03T03:24:50.942Z,100927.73
2018-08-03T03:29:54.814Z,100923.05
2018-08-03T03:34:58.689Z,100926.69
2018-08-03T03:40:03.944Z,100927.09
2018-08-03T03:45:08.058Z,100936.59
2018-08-03T03:50:11.764Z,100934.45
2018-08-03T03:55:17.256Z,100938.58
2018-08-03T04:00:21.095Z,100946.80
2018-08-03T04:05:24.808Z,100951.94
2018-08-03T04:10:28.543Z,100950.70
2018-08-03T04:15:32.345Z,100951.50
2018-08-03T04:20:35.970Z,100951.87
2018-08-03T04:25:39.657Z,100945.45
2018-08-03T04:30:43.614Z,100940.72
2018-08-03T04:35:47.263Z,100942.88
2018-08-03T04:40:50.917Z,100942.88
2018-08-03T04:45:54.633Z,100947.61
2018-08-03T04:50:58.318Z,100943.38
2018-08-03T04:56:02.622Z,100957.16
2018-08-03T05:01:06.311Z,100956.95
2018-08-03T05:06:10.039Z,100960.22
2018-08-03T05:11:13.734Z,100961.58
2018-08-03T05:16:17.426Z,100953.13
2018-08-03T05:21:21.214Z,100969.47
2018-08-03T05:26:25.297Z,100968.61
2018-08-03T05:31:28.984Z,100964.99
2018-08-03T05:36:32.682Z,100968.25
2018-08-03T05:41:36.464Z,100972.64
2018-08-03T05:46:40.126Z,100973.63
2018-08-03T05:51:43.792Z,100985.44
2018-08-03T05:56:47.511Z,100982.66
2018-08-03T06:01:51.194Z,100980.66
2018-08-03T06:06:55.177Z,100978.31
2018-08-03T06:11:58.874Z,100987.47
2018-08-03T06:17:02.671Z,100989.27
2018-08-03T06:22:06.439Z,100989.61
2018-08-03T06:27:10.247Z,100995.02
2018-08-03T06:32:13.854Z,100986.34
2018-08-03T06:37:17.609Z,100985.56
2018-08-03T06:42:21.315Z,100979.27
2018-08-03T06:47:24.979Z,100982.89
2018-08-03T06:52:29.084Z,100976.16
2018-08-03T06:57:32.937Z,100973.76
2018-08-03T07:02:36.746Z,100971.19
2018-08-03T07:07:40.401Z,100975.55
2018-08-03T07:12:44.041Z,100973.58
2018-08-03T07:17:47.771Z,100976.99
2018-08-03T07:22:51.484Z,100976.79
2018-08-03T07:27:55.246Z,100981.71
2018-08-03T07:32:58.950Z,100973.03
2018-08-03T07:38:02.670Z,100980.50
2018-08-03T07:43:06.353Z,100983.20
2018-08-03T07:48:10.030Z,100978.14
2018-08-03T07:53:13.723Z,100974.13
2018-08-03T07:58:17.355Z,100970.16
2018-08-03T08:03:21.117Z,100966.49
2018-08-03T08:08:24.749Z,100962.43
2018-08-03T08:13:28.475Z,100958.09
2018-08-03T08:18:33.207Z,100957.34
2018-08-03T08:23:36.960Z,100948.67
2018-08-03T08:28:40.851Z,100958.64
2018-08-03T08:33:44.618Z,100954.62
2018-08-03T08:38:48.414Z,100953.84
2018-08-03T08:43:53.258Z,100945.05
2018-08-03T08:48:57.970Z,100947.61
2018-08-03T08:54:01.755Z,100942.03
2018-08-03T08:59:05.446Z,100942.03
2018-08-03T09:04:10.121Z,100946.22
2018-08-03T09:09:13.837Z,100932.39
2018-08-03T09:14:17.518Z,100933.75
2018-08-03T09:19:22.010Z,100929.45
2018-08-03T09:24:25.683Z,100938.20
2018-08-03T09:29:29.417Z,100933.09
2018-08-03T09:34:33.118Z,100924.95
2018-08-03T09:39:36.900Z,100922.98
2018-08-03T09:44:41.067Z,100911.13
2018-08-03T09:49:44.803Z,100904.22
2018-08-03T09:54:48.552Z,100911.00
2018-08-03T09:59:52.247Z,100894.06
2018-08-03T10:04:55.888Z,100893.22
2018-08-03T10:09:59.701Z,100895.11
2018-08-03T10:15:05.689Z,100897.89
2018-08-03T10:20:09.696Z,100888.05
2018-08-03T10:25:13.406Z,100881.05
2018-08-03T10:30:17.245Z,100881.55
2018-08-03T10:35:20.938Z,100874.83
2018-08-03T10:40:24.638Z,100862.31
2018-08-03T10:45:28.282Z,100862.81
2018-08-03T10:50:31.963Z,100845.97
2018-08-03T10:55:35.631Z,100846.67
2018-08-03T11:00:39.342Z,100838.21
2018-08-03T11:05:43.083Z,100841.11
2018-08-03T11:10:46.724Z,100834.14
2018-08-03T11:15:50.374Z,100834.14
2018-08-03T11:20:54.758Z,100835.34
2018-08-03T11:25:58.721Z,100830.73
2018-08-03T11:31:03.623Z,100815.66
2018-08-03T11:36:07.703Z,100816.32
2018-08-03T11:41:11.412Z,100798.34
2018-08-03T11:46:15.138Z,100800.73
2018-08-03T11:51:19.346Z,100787.06
2018-08-03T11:56:23.012Z,100787.92
2018-08-03T12:01:26.707Z,100784.64
2018-08-03T12:06:30.500Z,100776.34
2018-08-03T12:11:34.262Z,100769.27
2018-08-03T12:16:37.989Z,100771.84
2018-08-03T12:21:42.310Z,100761.50
2018-08-03T12:26:46.033Z,100750.70
2018-08-03T12:31:50.075Z,100757.34
2018-08-03T12:36:54.899Z,100749.41
2018-08-03T12:41:58.836Z,100741.31
2018-08-03T12:47:02.760Z,100728.80
2018-08-03T12:52:07.102Z,100732.19
2018-08-03T12:57:11.103Z,100727.16
2018-08-03T13:02:14.978Z,100717.17
2018-08-03T13:07:19.982Z,100708.52
2018-08-03T13:12:23.615Z,100710.44
2018-08-03T13:17:28.405Z,100705.17
2018-08-03T13:22:32.190Z,100698.43
2018-08-03T13:27:35.944Z,100697.33
2018-08-03T13:32:39.761Z,100694.53
2018-08-03T13:37:44.098Z,100680.61
2018-08-03T13:42:48.198Z,100673.19
2018-08-03T13:47:52.225Z,100670.81
2018-08-03T13:52:56.123Z,100667.25
2018-08-03T13:58:00.676Z,100663.69
2018-08-03T14:03:04.488Z,100653.84
2018-08-03T14:08:08.342Z,100656.69
2018-08-03T14:13:11.998Z,100656.52
2018-08-03T14:18:15.698Z,100650.56
2018-08-03T14:23:19.513Z,100650.53
2018-08-03T14:28:23.174Z,100641.02
2018-08-03T14:33:27.077Z,100642.67
2018-08-03T14:38:30.771Z,100632.48
2018-08-03T14:43:34.414Z,100622.64
2018-08-03T14:48:38.160Z,100620.16
2018-08-03T14:53:41.898Z,100617.44
2018-08-03T14:58:45.494Z,100609.54
2018-08-03T15:03:53.205Z,100605.12
2018-08-03T15:08:57.281Z,100604.62
2018-08-03T15:14:00.978Z,100598.13
2018-08-03T15:19:04.908Z,100586.77
2018-08-03T15:24:08.712Z,100584.42
2018-08-03T15:29:18.675Z,100579.50
2018-08-03T15:34:23.917Z,100577.30
2018-08-03T15:39:27.710Z,100564.77
2018-08-03T15:44:31.568Z,100561.54
2018-08-03T15:49:35.345Z,100562.25
2018-08-03T15:54:39.102Z,100560.72
2018-08-03T15:59:42.770Z,100554.12
2018-08-03T16:04:46.499Z,100541.22
2018-08-03T16:09:50.098Z,100541.22
2018-08-03T16:14:54.369Z,100539.20
2018-08-03T16:19:58.180Z,100543.45
2018-08-03T16:25:04.732Z,100531.22
2018-08-03T16:30:09.802Z,100521.37
2018-08-03T16:35:13.670Z,100523.58
2018-08-03T16:40:17.561Z,100523.73
2018-08-03T16:45:21.156Z,100520.70
2018-08-03T16:50:24.878Z,100520.74
2018-08-03T16:55:28.674Z,100520.73
2018-08-03T17:00:32.497Z,100514.98
2018-08-03T17:05:36.332Z,100513.45
2018-08-03T17:10:40.074Z,100512.94
2018-08-03T17:15:43.903Z,100516.16
2018-08-03T17:20:47.790Z,100507.50
2018-08-03T17:25:51.664Z,100500.17
2018-08-03T17:30:55.313Z,100510.22
2018-08-03T17:35:59.011Z,100505.27
2018-08-03T17:41:04.526Z,100514.65
2018-08-03T17:46:08.377Z,100508.52
2018-08-03T17:51:12.055Z,100514.14
2018-08-03T17:56:16.059Z,100516.85
2018-08-03T18:01:19.732Z,100520.24
2018-08-03T18:06:23.562Z,100522.80
2018-08-03T18:11:27.250Z,100526.69
2018-08-03T18:16:30.909Z,100530.94
2018-08-03T18:21:35.174Z,100531.80
2018-08-03T18:26:38.983Z,100527.70
2018-08-03T18:31:42.650Z,100531.28
2018-08-03T18:36:46.353Z,100535.89
2018-08-03T18:41:50.287Z,100523.81
2018-08-03T18:46:54.332Z,100530.25
2018-08-03T18:51:58.136Z,100528.39
2018-08-03T18:57:02.393Z,100530.08
2018-08-03T19:02:07.038Z,100538.43
2018-08-03T19:07:10.961Z,100548.28
2018-08-03T19:12:14.676Z,100542.17
2018-08-03T19:17:18.379Z,100554.23
2018-08-03T19:22:22.039Z,100556.09
2018-08-03T19:27:25.815Z,100549.98
2018-08-03T19:32:29.689Z,100552.52
2018-08-03T19:37:33.674Z,100547.94
2018-08-03T19:42:37.841Z,100549.45
2018-08-03T19:47:41.737Z,100547.94
2018-08-03T19:52:45.614Z,100551.84
2018-08-03T19:57:49.299Z,100549.30
2018-08-03T20:02:53.671Z,100551.34
2018-08-03T20:07:57.994Z,100552.34
2018-08-03T20:13:01.685Z,100552.19
2018-08-03T20:18:05.371Z,100559.64
2018-08-03T20:23:09.073Z,100554.67
2018-08-03T20:28:12.921Z,100561.19
2018-08-03T20:33:16.622Z,100556.59
2018-08-03T20:38:20.305Z,100558.78
2018-08-03T20:43:23.961Z,100562.03
2018-08-03T20:48:27.620Z,100559.32
2018-08-03T20:53:31.434Z,100555.18
2018-08-03T20:58:35.104Z,100560.31
2018-08-03T21:03:39.521Z,100562.35
2018-08-03T21:08:43.964Z,100561.50
2018-08-03T21:13:48.265Z,100571.03
2018-08-03T21:18:52.080Z,100573.59
2018-08-03T21:23:55.772Z,100570.03
2018-08-03T21:29:00.557Z,100568.14
2018-08-03T21:34:04.237Z,100569.87
2018-08-03T21:39:10.603Z,100573.09
2018-08-03T21:44:14.389Z,100573.40
2018-08-03T21:49:18.127Z,100568.31
2018-08-03T21:54:22.311Z,100570.01
2018-08-03T21:59:26.167Z,100567.98
2018-08-03T22:04:30.013Z,100574.59
2018-08-03T22:09:33.706Z,100574.61
2018-08-03T22:14:37.480Z,100575.11
2018-08-03T22:19:41.186Z,100576.64
2018-08-03T22:24:44.914Z,100580.02
2018-08-03T22:29:48.630Z,100577.84
2018-08-03T22:34:52.293Z,100571.55
2018-08-03T22:39:56.987Z,100570.69
2018-08-03T22:45:03.252Z,100573.58
2018-08-03T23:10:36.135Z,100564.92
2018-08-03T23:15:40.821Z,100562.37
2018-08-03T23:20:44.533Z,100558.81
2018-08-03T23:25:48.276Z,100559.98
2018-08-03T23:30:51.934Z,100554.37
2018-08-03T23:35:55.654Z,100553.55
2018-08-03T23:40:59.397Z,100558.28
2018-08-03T23:46:03.074Z,100546.86
2018-08-03T23:51:06.787Z,100547.20
2018-08-03T23:56:10.450Z,100542.95
